createdAt,value
2019-03-27T00:01:10.861Z,12.87
2019-03-27T00:04:16.830Z,21.03
2019-03-27T00:07:22.720Z,22.73
2019-03-27T00:10:28.730Z,18.57
2019-03-27T00:13:36.218Z,22.30
2019-03-27T00:16:44.176Z,26.33
2019-03-27T00:19:50.227Z,20.30
2019-03-27T00:22:56.184Z,16.03
2019-03-27T00:26:02.142Z,17.20
2019-03-27T00:29:08.467Z,18.10
2019-03-27T00:32:14.405Z,23.07
2019-03-27T00:35:20.362Z,22.43
2019-03-27T00:38:26.280Z,26.67
2019-03-27T00:41:32.220Z,23.10
2019-03-27T00:44:38.095Z,21.60
2019-03-27T00:47:44.065Z,20.83
2019-03-27T00:50:52.024Z,18.23
2019-03-27T00:53:58.994Z,21.93
2019-03-27T00:57:04.940Z,19.83
2019-03-27T01:00:22.966Z,23.63
2019-03-27T01:03:30.033Z,23.43
2019-03-27T01:06:37.989Z,27.47
2019-03-27T01:09:44.007Z,21.30
2019-03-27T01:12:52.002Z,21.53
2019-03-27T01:15:57.910Z,18.50
2019-03-27T01:19:03.826Z,17.87
2019-03-27T01:22:09.727Z,22.33
2019-03-27T01:25:15.621Z,18.00
2019-03-27T01:28:22.006Z,26.00
2019-03-27T01:31:28.042Z,19.43
2019-03-27T01:34:33.974Z,26.47
2019-03-27T01:37:39.901Z,28.20
2019-03-27T01:40:47.854Z,25.53
2019-03-27T01:43:53.716Z,19.53
2019-03-27T01:46:59.821Z,24.77
2019-03-27T01:50:06.282Z,25.27
2019-03-27T01:53:12.297Z,26.17
2019-03-27T01:56:18.201Z,23.40
2019-03-27T01:59:24.206Z,25.37
2019-03-27T02:02:30.350Z,33.60
2019-03-27T02:05:36.295Z,29.93
2019-03-27T02:08:42.270Z,34.73
2019-03-27T02:11:48.330Z,33.90
2019-03-27T02:14:54.341Z,27.40
2019-03-27T02:18:00.242Z,43.07
2019-03-27T02:21:06.224Z,28.37
2019-03-27T02:24:13.312Z,39.27
2019-03-27T02:27:19.286Z,34.20
2019-03-27T02:30:25.190Z,29.07
2019-03-27T02:33:33.712Z,33.53
2019-03-27T02:36:39.576Z,31.40
2019-03-27T02:39:46.418Z,32.40
2019-03-27T02:42:52.429Z,31.77
2019-03-27T02:45:58.445Z,35.30
2019-03-27T02:49:05.266Z,24.27
2019-03-27T02:52:11.253Z,22.57
2019-03-27T02:55:18.168Z,34.87
2019-03-27T02:58:24.442Z,32.63
2019-03-27T03:01:30.361Z,25.20
2019-03-27T03:04:36.276Z,35.77
2019-03-27T03:07:42.295Z,25.13
2019-03-27T03:10:48.193Z,27.67
2019-03-27T03:13:54.171Z,39.67
2019-03-27T03:17:00.165Z,23.90
2019-03-27T03:20:06.692Z,29.70
2019-03-27T03:23:13.517Z,33.50
2019-03-27T03:26:19.392Z,28.83
2019-03-27T03:29:27.859Z,24.23
2019-03-27T03:32:33.690Z,23.80
2019-03-27T03:35:39.746Z,27.47
2019-03-27T03:38:45.666Z,32.23
2019-03-27T03:41:52.861Z,25.10
2019-03-27T03:44:58.763Z,23.83
2019-03-27T03:48:05.791Z,36.00
2019-03-27T03:51:13.171Z,32.87
2019-03-27T03:54:19.232Z,35.17
2019-03-27T03:57:29.178Z,23.90
2019-03-27T04:00:35.183Z,33.37
2019-03-27T04:03:42.858Z,27.40
2019-03-27T04:06:48.807Z,35.23
2019-03-27T04:09:54.710Z,33.07
2019-03-27T04:13:00.637Z,43.00
2019-03-27T04:16:06.684Z,33.57
2019-03-27T04:19:12.641Z,33.60
2019-03-27T04:22:18.569Z,33.43
2019-03-27T04:25:26.745Z,33.13
2019-03-27T04:28:32.765Z,40.20
2019-03-27T04:31:38.700Z,32.50
2019-03-27T04:34:47.061Z,37.70
2019-03-27T04:37:52.271Z,41.23
2019-03-27T04:40:58.147Z,35.83
2019-03-27T04:44:04.117Z,41.23
2019-03-27T04:47:10.035Z,41.93
2019-03-27T04:50:16.008Z,39.20
2019-03-27T04:53:21.927Z,48.83
2019-03-27T04:56:27.835Z,41.23
2019-03-27T04:59:35.106Z,38.03
2019-03-27T05:02:41.099Z,31.13
2019-03-27T05:05:47.071Z,31.20
2019-03-27T05:08:52.954Z,38.37
2019-03-27T05:11:58.879Z,44.17
2019-03-27T05:15:04.989Z,41.30
2019-03-27T05:18:10.950Z,36.40
2019-03-27T05:21:17.872Z,39.90
2019-03-27T05:24:23.791Z,38.27
2019-03-27T05:27:29.704Z,43.00
2019-03-27T05:30:35.689Z,46.03
2019-03-27T05:33:43.132Z,44.90
2019-03-27T05:36:49.135Z,44.80
2019-03-27T05:39:57.531Z,46.57
2019-03-27T05:43:03.499Z,47.60
2019-03-27T05:46:09.365Z,48.10
2019-03-27T05:49:16.974Z,37.90
2019-03-27T05:52:24.541Z,51.83
2019-03-27T05:55:30.432Z,46.30
2019-03-27T05:58:36.458Z,52.63
2019-03-27T06:01:42.390Z,36.20
2019-03-27T06:04:48.364Z,31.53
2019-03-27T06:07:54.490Z,40.20
2019-03-27T06:11:00.684Z,38.40
2019-03-27T06:14:06.605Z,44.10
2019-03-27T06:17:12.491Z,36.53
2019-03-27T06:20:20.985Z,41.03
2019-03-27T06:23:26.989Z,47.30
2019-03-27T06:26:32.995Z,38.40
2019-03-27T06:29:38.990Z,49.03
2019-03-27T06:32:44.965Z,43.80
2019-03-27T06:35:50.850Z,35.60
2019-03-27T06:38:56.774Z,35.73
2019-03-27T06:42:02.690Z,40.23
2019-03-27T06:45:10.254Z,39.83
2019-03-27T06:48:25.753Z,46.07
2019-03-27T06:51:25.302Z,42.90
2019-03-27T06:54:31.423Z,48.70
2019-03-27T06:57:37.355Z,41.13
2019-03-27T07:00:43.390Z,35.87
2019-03-27T07:03:49.364Z,36.77
2019-03-27T07:06:55.278Z,35.20
2019-03-27T07:10:01.254Z,43.60
2019-03-27T07:13:07.093Z,37.20
2019-03-27T07:16:13.041Z,38.13
2019-03-27T07:19:19.018Z,35.70
2019-03-27T07:22:24.964Z,30.40
2019-03-27T07:25:30.863Z,35.80
2019-03-27T07:28:39.046Z,31.93
2019-03-27T07:31:45.034Z,34.30
2019-03-27T07:34:50.974Z,36.53
2019-03-27T07:37:56.960Z,37.17
2019-03-27T07:41:02.892Z,35.07
2019-03-27T07:44:08.863Z,34.70
2019-03-27T07:47:14.855Z,27.83
2019-03-27T07:50:20.947Z,27.70
2019-03-27T07:53:27.090Z,32.10
2019-03-27T07:56:33.052Z,34.67
2019-03-27T07:59:38.973Z,34.30
2019-03-27T08:02:45.145Z,31.37
2019-03-27T08:05:51.144Z,29.10
2019-03-27T08:08:57.126Z,29.27
2019-03-27T08:12:03.180Z,28.70
2019-03-27T08:15:09.613Z,28.50
2019-03-27T08:18:15.644Z,24.57
2019-03-27T08:21:21.531Z,23.07
2019-03-27T08:24:27.535Z,28.80
2019-03-27T08:27:33.362Z,29.83
2019-03-27T08:30:39.275Z,21.53
2019-03-27T08:33:45.190Z,34.73
2019-03-27T08:36:58.035Z,30.47
2019-03-27T08:40:00.913Z,21.00
2019-03-27T08:43:20.721Z,32.27
2019-03-27T08:46:15.723Z,26.60
2019-03-27T08:49:22.673Z,26.27
2019-03-27T08:52:38.873Z,33.83
2019-03-27T08:55:44.834Z,32.93
2019-03-27T08:58:50.713Z,30.20
2019-03-27T09:01:56.663Z,29.00
2019-03-27T09:05:02.758Z,35.27
2019-03-27T09:08:08.635Z,31.53
2019-03-27T09:11:14.684Z,25.37
2019-03-27T09:14:21.230Z,30.20
2019-03-27T09:17:27.168Z,29.77
2019-03-27T09:20:33.131Z,21.47
2019-03-27T09:23:39.150Z,32.47
2019-03-27T09:26:47.150Z,25.30
2019-03-27T09:29:53.130Z,25.60
2019-03-27T09:32:59.179Z,30.27
2019-03-27T09:36:05.448Z,22.47
2019-03-27T09:39:11.459Z,22.30
2019-03-27T09:42:17.400Z,27.83
2019-03-27T09:45:23.252Z,24.23
2019-03-27T09:48:29.212Z,24.63
2019-03-27T09:51:35.108Z,25.97
2019-03-27T09:54:41.100Z,24.00
2019-03-27T09:57:46.945Z,20.60
2019-03-27T10:01:03.999Z,18.70
2019-03-27T10:04:09.870Z,17.37
2019-03-27T10:07:15.761Z,22.87
2019-03-27T10:10:21.670Z,20.13
2019-03-27T10:13:27.591Z,17.80
2019-03-27T10:16:33.670Z,15.37
2019-03-27T10:19:39.635Z,17.03
2019-03-27T10:22:45.583Z,24.33
2019-03-27T10:25:52.481Z,22.30
2019-03-27T10:29:01.040Z,17.33
2019-03-27T10:32:07.248Z,24.37
2019-03-27T10:35:13.559Z,16.80
2019-03-27T10:38:20.009Z,18.73
2019-03-27T10:41:26.027Z,14.80
2019-03-27T10:44:32.098Z,17.53
2019-03-27T10:47:38.137Z,13.13
2019-03-27T10:50:44.082Z,19.37
2019-03-27T10:53:50.071Z,14.17
2019-03-27T10:56:56.058Z,15.90
2019-03-27T11:00:01.983Z,20.97
2019-03-27T11:03:10.888Z,12.70
2019-03-27T11:06:16.826Z,17.20
2019-03-27T11:09:22.783Z,17.47
2019-03-27T11:12:28.717Z,16.90
2019-03-27T11:15:34.612Z,18.97
2019-03-27T11:18:40.553Z,13.67
2019-03-27T11:21:46.671Z,16.23
2019-03-27T11:24:53.578Z,15.40
2019-03-27T11:27:59.498Z,14.27
2019-03-27T11:31:07.595Z,16.10
2019-03-27T11:34:13.315Z,17.50
2019-03-27T11:37:19.277Z,15.00
2019-03-27T11:40:25.297Z,12.37
2019-03-27T11:43:31.173Z,14.40
2019-03-27T11:46:37.215Z,13.77
2019-03-27T11:49:43.115Z,11.53
2019-03-27T11:52:49.138Z,11.63
2019-03-27T11:55:55.126Z,11.07
2019-03-27T11:59:01.031Z,13.07
2019-03-27T12:02:06.980Z,13.37
2019-03-27T12:05:17.119Z,12.50
2019-03-27T12:08:23.092Z,19.50
2019-03-27T12:11:29.162Z,8.90
2019-03-27T12:14:35.262Z,8.70
2019-03-27T12:17:43.528Z,9.97
2019-03-27T12:20:58.962Z,11.30
2019-03-27T12:23:57.209Z,10.50
2019-03-27T12:27:03.108Z,13.17
2019-03-27T12:30:09.394Z,8.30
2019-03-27T12:33:15.376Z,7.43
2019-03-27T12:36:21.323Z,9.23
2019-03-27T12:39:27.227Z,7.30
2019-03-27T12:42:33.138Z,7.37
2019-03-27T12:45:39.054Z,8.80
2019-03-27T12:48:44.942Z,6.77
2019-03-27T12:51:50.987Z,8.53
2019-03-27T12:54:57.020Z,8.37
2019-03-27T12:58:02.993Z,7.23
2019-03-27T13:01:09.038Z,11.30
2019-03-27T13:04:15.054Z,8.80
2019-03-27T13:07:20.950Z,9.47
2019-03-27T13:10:26.842Z,6.53
2019-03-27T13:13:32.799Z,9.10
2019-03-27T13:16:38.748Z,7.13
2019-03-27T13:19:45.015Z,7.20
2019-03-27T13:22:50.919Z,6.60
2019-03-27T13:25:56.848Z,8.70
2019-03-27T13:29:02.766Z,7.00
2019-03-27T13:32:08.964Z,7.07
2019-03-27T13:35:16.730Z,8.87
2019-03-27T13:38:22.711Z,8.07
2019-03-27T13:41:28.697Z,6.47
2019-03-27T13:44:37.263Z,5.80
2019-03-27T13:47:42.329Z,7.30
2019-03-27T13:50:48.360Z,11.03
2019-03-27T13:53:54.243Z,9.17
2019-03-27T13:57:00.159Z,12.00
2019-03-27T14:00:10.049Z,11.70
2019-03-27T14:03:16.098Z,9.17
2019-03-27T14:06:21.994Z,5.63
2019-03-27T14:09:27.890Z,12.10
2019-03-27T14:12:33.799Z,8.90
2019-03-27T14:15:39.671Z,8.93
2019-03-27T14:18:48.809Z,9.20
2019-03-27T14:21:55.352Z,10.07
2019-03-27T14:25:01.468Z,7.00
2019-03-27T14:28:08.624Z,7.80
2019-03-27T14:31:14.868Z,9.10
2019-03-27T14:34:20.748Z,5.77
2019-03-27T14:37:26.659Z,6.90
2019-03-27T14:40:32.607Z,7.67
2019-03-27T14:43:38.596Z,7.77
2019-03-27T14:46:44.553Z,6.23
2019-03-27T14:49:50.614Z,8.80
2019-03-27T14:52:56.514Z,4.07
2019-03-27T14:56:06.078Z,10.13
2019-03-27T14:59:12.125Z,9.87
2019-03-27T15:02:18.118Z,6.33
2019-03-27T15:05:24.012Z,8.13
2019-03-27T15:08:29.958Z,7.23
2019-03-27T15:11:35.883Z,8.27
2019-03-27T15:14:41.848Z,5.83
2019-03-27T15:17:47.734Z,7.20
2019-03-27T15:20:53.680Z,7.87
2019-03-27T15:23:59.693Z,7.30
2019-03-27T15:27:05.616Z,8.67
2019-03-27T15:30:13.079Z,7.77
2019-03-27T15:33:20.172Z,6.03
2019-03-27T15:36:28.598Z,9.93
2019-03-27T15:39:34.619Z,6.60
2019-03-27T15:42:40.599Z,8.37
2019-03-27T15:45:46.587Z,6.10
2019-03-27T15:48:52.607Z,17.10
2019-03-27T15:51:58.583Z,8.70
2019-03-27T15:55:04.764Z,8.00
2019-03-27T15:58:10.718Z,12.77
2019-03-27T16:01:16.741Z,11.67
2019-03-27T16:04:22.696Z,7.13
2019-03-27T16:07:31.308Z,15.80
2019-03-27T16:10:38.256Z,8.40
2019-03-27T16:13:44.243Z,8.57
2019-03-27T16:17:06.835Z,8.40
2019-03-27T16:19:58.902Z,12.97
2019-03-27T16:23:04.949Z,13.13
2019-03-27T16:26:10.904Z,11.30
2019-03-27T16:29:16.874Z,9.13
2019-03-27T16:32:22.784Z,12.00
2019-03-27T16:35:28.788Z,9.43
2019-03-27T16:38:34.724Z,10.00
2019-03-27T16:41:40.707Z,9.17
2019-03-27T16:44:48.000Z,8.97
2019-03-27T16:47:53.924Z,14.37
2019-03-27T16:50:59.922Z,11.07
2019-03-27T16:54:06.042Z,15.57
2019-03-27T16:57:12.082Z,9.37
2019-03-27T17:00:18.076Z,11.03
2019-03-27T17:03:24.018Z,9.67
2019-03-27T17:06:30.072Z,10.30
2019-03-27T17:09:36.003Z,8.10
2019-03-27T17:12:44.241Z,9.20
2019-03-27T17:15:51.767Z,10.30
2019-03-27T17:18:59.624Z,9.70
2019-03-27T17:22:18.583Z,9.33
2019-03-27T17:25:13.447Z,14.37
2019-03-27T17:28:19.464Z,6.87
2019-03-27T17:31:25.318Z,6.60
2019-03-27T17:34:31.249Z,8.80
2019-03-27T17:37:37.191Z,7.10
2019-03-27T17:40:43.060Z,9.90
2019-03-27T17:43:52.049Z,6.00
2019-03-27T17:46:58.082Z,7.10
2019-03-27T17:50:05.024Z,6.80
2019-03-27T17:53:11.049Z,12.60
2019-03-27T17:56:17.208Z,8.20
2019-03-27T17:59:23.091Z,9.90
2019-03-27T18:02:29.241Z,8.47
2019-03-27T18:05:38.514Z,11.03
2019-03-27T18:08:43.095Z,9.00
2019-03-27T18:11:50.116Z,10.73
2019-03-27T18:14:59.623Z,8.70
2019-03-27T18:18:21.192Z,11.17
2019-03-27T18:21:27.224Z,12.30
2019-03-27T18:24:33.281Z,9.40
2019-03-27T18:27:39.418Z,13.43
2019-03-27T18:30:49.083Z,10.03
2019-03-27T18:33:55.038Z,10.10
2019-03-27T18:37:01.074Z,10.60
2019-03-27T18:40:09.568Z,12.20
2019-03-27T18:43:17.070Z,14.10
2019-03-27T18:46:24.461Z,15.83
2019-03-27T18:49:30.525Z,10.97
2019-03-27T18:52:36.480Z,10.63
2019-03-27T18:55:43.083Z,12.03
2019-03-27T18:58:49.047Z,12.47
2019-03-27T19:01:55.022Z,9.93
2019-03-27T19:05:02.723Z,16.17
2019-03-27T19:08:10.052Z,10.20
2019-03-27T19:11:15.992Z,10.63
2019-03-27T19:14:24.063Z,9.33
2019-03-27T19:17:31.592Z,8.80
2019-03-27T19:20:37.574Z,9.90
2019-03-27T19:23:43.504Z,12.20
2019-03-27T19:26:49.420Z,13.43
2019-03-27T19:29:55.468Z,10.00
2019-03-27T19:33:01.584Z,11.40
2019-03-27T19:36:08.007Z,11.60
2019-03-27T19:39:14.086Z,12.77
2019-03-27T19:42:20.477Z,16.60
2019-03-27T19:45:26.521Z,12.53
2019-03-27T19:48:47.927Z,11.80
2019-03-27T19:51:56.557Z,16.50
2019-03-27T19:55:02.606Z,14.57
2019-03-27T19:58:08.545Z,10.53
2019-03-27T20:01:14.641Z,14.20
2019-03-27T20:04:20.550Z,12.70
2019-03-27T20:07:35.925Z,13.00
2019-03-27T20:10:34.808Z,10.30
2019-03-27T20:13:40.907Z,11.90
2019-03-27T20:16:46.872Z,16.30
2019-03-27T20:19:52.868Z,10.90
2019-03-27T20:22:58.771Z,16.60
2019-03-27T20:26:04.716Z,17.87
2019-03-27T20:29:10.665Z,16.00
2019-03-27T20:32:16.656Z,12.37
2019-03-27T20:35:23.001Z,12.97
2019-03-27T20:38:29.271Z,15.57
2019-03-27T20:41:36.398Z,13.40
2019-03-27T20:44:42.772Z,16.87
2019-03-27T20:47:48.799Z,19.50
2019-03-27T20:50:54.765Z,15.30
2019-03-27T20:54:01.544Z,13.13
2019-03-27T20:57:07.787Z,14.30
2019-03-27T21:00:15.391Z,17.40
2019-03-27T21:03:21.441Z,15.43
2019-03-27T21:06:27.409Z,16.90
2019-03-27T21:09:33.392Z,18.43
2019-03-27T21:12:40.929Z,15.80
2019-03-27T21:15:47.426Z,18.63
2019-03-27T21:18:53.777Z,18.60
2019-03-27T21:21:59.820Z,20.13
2019-03-27T21:25:09.207Z,19.57
2019-03-27T21:28:15.258Z,18.13
2019-03-27T21:31:21.282Z,17.30
2019-03-27T21:34:27.226Z,19.50
2019-03-27T21:37:33.176Z,19.70
2019-03-27T21:40:39.203Z,20.00
2019-03-27T21:43:45.138Z,16.97
2019-03-27T21:46:58.731Z,20.93
2019-03-27T21:50:05.048Z,16.33
2019-03-27T21:53:11.083Z,19.83
2019-03-27T21:56:17.047Z,18.93
2019-03-27T21:59:23.121Z,22.13
2019-03-27T22:02:30.228Z,20.97
2019-03-27T22:05:36.291Z,20.13
2019-03-27T22:08:43.757Z,23.70
2019-03-27T22:11:49.790Z,18.43
2019-03-27T22:14:55.727Z,29.87
2019-03-27T22:18:01.664Z,18.20
2019-03-27T22:21:07.618Z,20.40
2019-03-27T22:24:13.600Z,21.57
2019-03-27T22:27:19.715Z,21.97
2019-03-27T22:30:25.920Z,26.00
2019-03-27T22:33:33.380Z,21.83
2019-03-27T22:36:39.405Z,22.87
2019-03-27T22:39:45.367Z,21.37
2019-03-27T22:42:52.302Z,18.97
2019-03-27T22:45:58.271Z,20.30
2019-03-27T22:49:05.886Z,21.60
2019-03-27T22:52:11.863Z,23.53
2019-03-27T22:55:17.765Z,22.43
2019-03-27T22:58:23.663Z,26.43
2019-03-27T23:01:50.418Z,23.70
2019-03-27T23:04:56.501Z,27.53
2019-03-27T23:08:02.416Z,23.00
2019-03-27T23:11:08.392Z,24.20
2019-03-27T23:14:14.325Z,27.43
2019-03-27T23:17:20.227Z,23.10
2019-03-27T23:20:26.190Z,21.13
2019-03-27T23:23:34.622Z,28.33
2019-03-27T23:26:40.605Z,27.80
2019-03-27T23:29:46.550Z,24.50
2019-03-27T23:32:52.829Z,30.40
2019-03-27T23:35:58.741Z,24.20
2019-03-27T23:39:05.145Z,27.10
2019-03-27T23:42:11.406Z,24.93
2019-03-27T23:45:17.342Z,27.93
2019-03-27T23:48:23.625Z,32.50
2019-03-27T23:51:29.603Z,29.13
2019-03-27T23:54:35.635Z,30.20
2019-03-27T23:57:41.597Z,25.87
